Time;durP1;ratioP1;P1;durP2;ratioP2;P2;SDS_P1;SDS_P2;PMS_P1;PMS_P2;Temp;Humidity;BMP_temperature;BMP_pressure;BME280_temperature;BME280_humidity;BME280_pressure;Samples;Min_cycle;Max_cycle;Signal;HPM_P1;HPM_P2
2024/02/09 00:00:11;;;;;;;1.90;1.90;;;;;;;;;;6382303;28;20291;-59
2024/02/09 00:03:18;;;;;;;1.73;1.73;;;;;;;;;;6382321;28;20300;-57
2024/02/09 00:06:22;;;;;;;1.90;1.90;;;;;;;;;;6382506;27;20299;-59
2024/02/09 00:09:26;;;;;;;1.63;1.63;;;;;;;;;;6381495;28;20295;-58
2024/02/09 00:12:30;;;;;;;2.20;1.97;;;;;;;;;;6357335;28;20298;-57
2024/02/09 00:15:35;;;;;;;1.83;1.73;;;;;;;;;;6351001;28;20290;-57
2024/02/09 00:18:40;;;;;;;1.47;1.47;;;;;;;;;;6355551;28;20289;-57
2024/02/09 00:21:44;;;;;;;1.93;1.93;;;;;;;;;;6357263;28;20284;-57
2024/02/09 00:24:48;;;;;;;1.80;1.80;;;;;;;;;;6348457;28;20287;-57
2024/02/09 00:27:52;;;;;;;1.67;1.57;;;;;;;;;;6356671;28;20294;-55
2024/02/09 00:30:57;;;;;;;2.10;2.00;;;;;;;;;;6357248;28;20293;-56
2024/02/09 00:34:01;;;;;;;1.43;1.43;;;;;;;;;;6356653;28;20284;-58
2024/02/09 00:37:06;;;;;;;1.83;1.83;;;;;;;;;;6357075;28;20289;-57
2024/02/09 00:40:13;;;;;;;1.67;1.63;;;;;;;;;;6356290;28;20297;-56
2024/02/09 00:43:19;;;;;;;1.80;1.70;;;;;;;;;;6381610;28;20505;-58
2024/02/09 00:46:28;;;;;;;1.80;1.80;;;;;;;;;;6382469;28;20527;-57
2024/02/09 00:49:32;;;;;;;1.80;1.80;;;;;;;;;;6381623;28;20368;-57
2024/02/09 00:52:36;;;;;;;2.00;1.70;;;;;;;;;;6382205;28;20301;-57
2024/02/09 00:55:40;;;;;;;1.70;1.70;;;;;;;;;;6381648;27;20305;-57
2024/02/09 00:58:44;;;;;;;2.13;2.03;;;;;;;;;;6386075;27;20285;-57
2024/02/09 01:01:53;;;;;;;1.80;1.80;;;;;;;;;;6386538;27;20297;-57
2024/02/09 01:05:15;;;;;;;1.90;1.80;;;;;;;;;;6386047;27;20467;-58
2024/02/09 01:08:19;;;;;;;1.83;1.70;;;;;;;;;;6385503;27;20285;-56
2024/02/09 01:11:23;;;;;;;1.77;1.77;;;;;;;;;;6368828;27;20383;-55
2024/02/09 02:45:07;;;;;;;1.60;1.60;;;;;;;;;;6357532;28;20291;-57
2024/02/09 03:05:02;;;;;;;1.83;1.83;;;;;;;;;;6357344;28;20335;-57
2024/02/09 03:08:08;;;;;;;1.63;1.63;;;;;;;;;;6358074;28;20288;-57
2024/02/09 03:11:32;;;;;;;1.60;1.50;;;;;;;;;;6339730;28;20290;-57
2024/02/09 03:14:37;;;;;;;2.53;1.80;;;;;;;;;;6332146;28;20317;-57
2024/02/09 03:17:42;;;;;;;1.63;1.60;;;;;;;;;;6355966;28;20290;-57
2024/02/09 03:20:46;;;;;;;1.70;1.70;;;;;;;;;;6357091;28;20432;-57
2024/02/09 03:23:50;;;;;;;1.73;1.70;;;;;;;;;;6356939;28;20294;-57
2024/02/09 03:26:53;;;;;;;1.87;1.77;;;;;;;;;;6357502;28;20297;-55
2024/02/09 03:30:00;;;;;;;1.47;1.47;;;;;;;;;;6356917;28;20295;-57
2024/02/09 03:33:04;;;;;;;1.47;1.47;;;;;;;;;;6356596;28;20313;-57
2024/02/09 03:36:09;;;;;;;1.50;1.50;;;;;;;;;;6357262;28;20293;-58
2024/02/09 03:39:12;;;;;;;1.47;1.37;;;;;;;;;;6357096;28;20288;-57
2024/02/09 03:42:18;;;;;;;1.47;1.47;;;;;;;;;;6357359;28;20302;-57
2024/02/09 03:45:23;;;;;;;1.50;1.50;;;;;;;;;;6354515;28;20293;-56
2024/02/09 03:48:27;;;;;;;2.57;1.43;;;;;;;;;;6356172;28;20296;-57
2024/02/09 03:51:31;;;;;;;2.83;1.50;;;;;;;;;;6356842;28;20290;-56
2024/02/09 03:54:35;;;;;;;1.40;1.40;;;;;;;;;;6355922;28;20300;-57
2024/02/09 03:57:39;;;;;;;1.40;1.40;;;;;;;;;;6356099;28;20301;-58
2024/02/09 04:00:45;;;;;;;1.50;1.50;;;;;;;;;;6357871;28;20286;-57
2024/02/09 04:03:49;;;;;;;1.50;1.50;;;;;;;;;;6350512;28;20291;-56
2024/02/09 04:06:53;;;;;;;1.40;1.40;;;;;;;;;;6348187;28;20298;-55
2024/02/09 04:09:57;;;;;;;1.60;1.50;;;;;;;;;;6330945;28;20290;-56
2024/02/09 04:13:05;;;;;;;1.53;1.40;;;;;;;;;;6350096;28;20346;-55
2024/02/09 04:16:10;;;;;;;1.30;1.30;;;;;;;;;;6344928;28;20287;-56
2024/02/09 04:19:15;;;;;;;1.47;1.47;;;;;;;;;;6330796;28;20307;-55
2024/02/09 04:22:19;;;;;;;1.90;1.80;;;;;;;;;;6354988;28;20673;-55
2024/02/09 04:25:23;;;;;;;1.73;1.67;;;;;;;;;;6356060;28;20600;-57
2024/02/09 04:28:27;;;;;;;1.80;1.70;;;;;;;;;;6356819;28;20298;-58
2024/02/09 04:31:32;;;;;;;1.60;1.60;;;;;;;;;;6357292;28;20285;-57
2024/02/09 04:34:36;;;;;;;1.50;1.50;;;;;;;;;;6360848;28;20306;-57
2024/02/09 04:37:40;;;;;;;1.73;1.60;;;;;;;;;;6350658;27;20607;-56
2024/02/09 04:40:44;;;;;;;1.50;1.50;;;;;;;;;;6335801;28;20287;-57
2024/02/09 04:43:52;;;;;;;1.53;1.53;;;;;;;;;;6336239;28;20290;-56
2024/02/09 04:46:57;;;;;;;1.63;1.50;;;;;;;;;;6335352;28;20287;-58
2024/02/09 04:50:01;;;;;;;1.73;1.67;;;;;;;;;;6335845;28;20304;-57
2024/02/09 04:53:05;;;;;;;2.10;2.00;;;;;;;;;;6335704;28;20297;-57
2024/02/09 04:56:10;;;;;;;1.60;1.60;;;;;;;;;;6353575;28;20298;-58
2024/02/09 04:59:14;;;;;;;1.83;1.73;;;;;;;;;;6360743;28;20293;-58
2024/02/09 05:02:19;;;;;;;1.73;1.63;;;;;;;;;;6360753;28;20290;-57
2024/02/09 05:05:23;;;;;;;1.47;1.47;;;;;;;;;;6360441;28;20293;-57
2024/02/09 05:08:27;;;;;;;1.80;1.70;;;;;;;;;;6360760;28;20290;-57
2024/02/09 05:11:33;;;;;;;1.73;1.73;;;;;;;;;;6360121;28;20304;-57
2024/02/09 05:14:36;;;;;;;1.80;1.50;;;;;;;;;;6360359;28;20315;-57
2024/02/09 05:17:42;;;;;;;1.80;1.70;;;;;;;;;;6360234;28;20286;-58
2024/02/09 05:20:48;;;;;;;1.60;1.60;;;;;;;;;;6359784;28;20379;-57
2024/02/09 05:23:52;;;;;;;1.70;1.70;;;;;;;;;;6360600;28;20297;-57
2024/02/09 05:26:56;;;;;;;1.50;1.40;;;;;;;;;;6359822;28;20294;-57
2024/02/09 05:30:00;;;;;;;1.60;1.60;;;;;;;;;;6359611;28;20570;-56
2024/02/09 05:33:05;;;;;;;1.73;1.63;;;;;;;;;;6359947;28;20298;-57
2024/02/09 05:36:18;;;;;;;1.67;1.57;;;;;;;;;;6359863;28;20573;-57
2024/02/09 05:39:22;;;;;;;2.70;1.47;;;;;;;;;;6358964;28;20527;-59
2024/02/09 05:42:26;;;;;;;1.80;1.80;;;;;;;;;;6359514;28;20290;-58
2024/02/09 05:45:30;;;;;;;1.53;1.53;;;;;;;;;;6359155;28;20297;-58
2024/02/09 05:48:35;;;;;;;1.50;1.50;;;;;;;;;;6359660;28;20567;-57
2024/02/09 05:51:39;;;;;;;2.00;1.80;;;;;;;;;;6359335;28;20294;-55
2024/02/09 05:54:43;;;;;;;1.70;1.67;;;;;;;;;;6359261;28;20312;-56
2024/02/09 05:57:47;;;;;;;1.63;1.63;;;;;;;;;;6359678;28;20284;-58
2024/02/09 06:00:52;;;;;;;1.90;1.90;;;;;;;;;;6359374;28;20294;-58
2024/02/09 06:03:57;;;;;;;1.90;1.90;;;;;;;;;;6359760;28;20296;-58
2024/02/09 06:07:01;;;;;;;1.67;1.67;;;;;;;;;;6359903;28;20472;-56
2024/02/09 06:10:06;;;;;;;1.83;1.83;;;;;;;;;;6359293;28;20478;-58
2024/02/09 06:13:10;;;;;;;1.60;1.60;;;;;;;;;;6379828;27;20293;-57
2024/02/09 06:16:14;;;;;;;2.00;1.93;;;;;;;;;;6372847;27;20298;-58
2024/02/09 06:19:23;;;;;;;1.83;1.80;;;;;;;;;;6359285;28;20294;-57
2024/02/09 06:22:27;;;;;;;2.30;1.77;;;;;;;;;;6359893;28;20595;-59
2024/02/09 06:25:31;;;;;;;1.90;1.67;;;;;;;;;;6358951;28;20285;-58
2024/02/09 06:28:35;;;;;;;2.50;2.10;;;;;;;;;;6359506;28;20535;-57
2024/02/09 06:31:42;;;;;;;2.00;2.00;;;;;;;;;;6358514;28;20302;-58
2024/02/09 06:34:48;;;;;;;1.97;1.93;;;;;;;;;;6358584;28;20299;-58
2024/02/09 06:37:56;;;;;;;2.37;2.07;;;;;;;;;;6356245;28;20281;-58
2024/02/09 06:41:00;;;;;;;2.03;1.83;;;;;;;;;;6333334;28;20294;-57
2024/02/09 06:44:04;;;;;;;2.40;2.27;;;;;;;;;;6333150;28;20690;-58
2024/02/09 06:47:08;;;;;;;2.00;1.90;;;;;;;;;;6334091;28;20306;-56
2024/02/09 06:50:13;;;;;;;1.87;1.87;;;;;;;;;;6333431;28;20295;-56
2024/02/09 06:53:20;;;;;;;2.00;1.90;;;;;;;;;;6329436;28;20294;-57
2024/02/09 06:56:24;;;;;;;2.67;2.43;;;;;;;;;;6328861;28;20318;-58
2024/02/09 06:59:28;;;;;;;2.30;2.20;;;;;;;;;;6332901;28;20473;-57
2024/02/09 07:02:31;;;;;;;2.50;2.40;;;;;;;;;;6333376;28;20403;-59
2024/02/09 07:05:38;;;;;;;2.33;2.23;;;;;;;;;;6332852;28;20294;-58
2024/02/09 07:08:50;;;;;;;2.53;2.43;;;;;;;;;;6333656;28;20289;-59
2024/02/09 07:11:54;;;;;;;2.13;2.03;;;;;;;;;;6304066;28;20290;-58
2024/02/09 07:14:58;;;;;;;2.23;2.23;;;;;;;;;;6357508;28;20290;-57
2024/02/09 07:18:02;;;;;;;1.90;1.90;;;;;;;;;;6358029;28;20304;-58
2024/02/09 07:21:08;;;;;;;2.23;2.13;;;;;;;;;;6357898;28;20487;-57
2024/02/09 07:24:12;;;;;;;2.43;2.30;;;;;;;;;;6357150;28;20618;-56
2024/02/09 07:27:16;;;;;;;3.27;2.50;;;;;;;;;;6357779;28;20379;-57
2024/02/09 07:30:20;;;;;;;3.00;2.60;;;;;;;;;;6357388;28;20296;-56
2024/02/09 07:33:24;;;;;;;2.30;2.20;;;;;;;;;;6357291;28;20295;-59
2024/02/09 07:36:30;;;;;;;2.77;2.57;;;;;;;;;;6357618;28;20298;-58
2024/02/09 07:39:34;;;;;;;3.03;2.83;;;;;;;;;;6357282;28;20574;-58
2024/02/09 07:42:39;;;;;;;3.80;2.30;;;;;;;;;;6358057;28;20286;-57
2024/02/09 07:45:43;;;;;;;2.63;2.53;;;;;;;;;;6357703;28;20305;-60
2024/02/09 07:48:47;;;;;;;2.43;2.33;;;;;;;;;;6357823;28;20289;-58
2024/02/09 07:51:54;;;;;;;2.20;2.10;;;;;;;;;;6357289;28;20278;-58
2024/02/09 07:54:58;;;;;;;2.47;2.33;;;;;;;;;;6356989;28;20293;-57
2024/02/09 07:58:03;;;;;;;2.40;2.30;;;;;;;;;;6357880;28;20295;-59
2024/02/09 08:01:07;;;;;;;2.40;2.30;;;;;;;;;;6357292;28;20295;-58
2024/02/09 08:04:11;;;;;;;3.20;2.30;;;;;;;;;;6356768;28;20558;-58
2024/02/09 08:07:19;;;;;;;2.17;2.17;;;;;;;;;;6360421;28;20302;-56
2024/02/09 08:10:23;;;;;;;2.60;2.20;;;;;;;;;;6362321;28;20298;-57
2024/02/09 08:13:27;;;;;;;2.40;2.30;;;;;;;;;;6362855;27;20312;-56
2024/02/09 08:16:31;;;;;;;2.40;2.20;;;;;;;;;;6361986;28;20606;-57
2024/02/09 08:19:35;;;;;;;2.63;2.53;;;;;;;;;;6362091;28;20298;-56
2024/02/09 08:22:44;;;;;;;5.83;2.50;;;;;;;;;;6362547;28;20575;-56
2024/02/09 08:25:48;;;;;;;3.00;2.63;;;;;;;;;;6361896;28;20286;-56
2024/02/09 08:28:52;;;;;;;3.93;2.20;;;;;;;;;;6362644;28;20286;-58
2024/02/09 08:31:56;;;;;;;2.60;2.40;;;;;;;;;;6362195;28;20520;-56
2024/02/09 08:35:00;;;;;;;2.20;2.10;;;;;;;;;;6362080;28;20312;-56
2024/02/09 08:38:07;;;;;;;2.40;2.30;;;;;;;;;;6361460;28;20285;-57
2024/02/09 08:41:11;;;;;;;2.50;2.40;;;;;;;;;;6361898;28;20302;-57
2024/02/09 08:44:15;;;;;;;2.83;2.37;;;;;;;;;;6361491;28;20474;-59
2024/02/09 08:47:21;;;;;;;2.27;2.17;;;;;;;;;;6362556;28;20298;-58
2024/02/09 08:50:26;;;;;;;2.33;2.23;;;;;;;;;;6361310;28;20497;-57
2024/02/09 08:53:33;;;;;;;1.77;1.77;;;;;;;;;;6361624;28;20303;-57
2024/02/09 08:56:37;;;;;;;2.67;2.47;;;;;;;;;;6360647;28;20302;-57
2024/02/09 08:59:42;;;;;;;2.40;2.30;;;;;;;;;;6360746;28;20290;-58
2024/02/09 09:02:46;;;;;;;2.10;2.10;;;;;;;;;;6361909;28;20292;-56
2024/02/09 09:05:50;;;;;;;2.43;2.33;;;;;;;;;;6360960;28;20300;-57
2024/02/09 09:08:55;;;;;;;2.50;2.40;;;;;;;;;;6342623;28;20291;-57
2024/02/09 09:11:59;;;;;;;2.50;2.40;;;;;;;;;;6370967;27;20594;-57
2024/02/09 09:15:08;;;;;;;2.20;2.10;;;;;;;;;;6383888;27;20298;-58
2024/02/09 09:18:12;;;;;;;2.50;2.10;;;;;;;;;;6360753;28;20397;-57
2024/02/09 09:21:16;;;;;;;2.23;2.20;;;;;;;;;;6361326;28;20293;-57
2024/02/09 09:24:21;;;;;;;2.53;2.43;;;;;;;;;;6360619;28;20293;-58
2024/02/09 09:27:25;;;;;;;2.27;2.20;;;;;;;;;;6360461;28;20470;-58
2024/02/09 09:30:30;;;;;;;5.90;2.50;;;;;;;;;;6360275;28;20290;-58
2024/02/09 09:33:34;;;;;;;2.53;2.43;;;;;;;;;;6360343;28;20286;-59
2024/02/09 09:36:38;;;;;;;2.23;2.23;;;;;;;;;;6359986;28;20702;-57
2024/02/09 09:39:43;;;;;;;3.37;2.23;;;;;;;;;;6359704;28;20609;-58
2024/02/09 09:42:47;;;;;;;2.40;2.40;;;;;;;;;;6361190;28;20329;-58
2024/02/09 09:45:56;;;;;;;3.23;2.90;;;;;;;;;;6360213;28;20297;-58
2024/02/09 09:49:01;;;;;;;2.87;2.77;;;;;;;;;;6359588;28;20300;-58
2024/02/09 09:52:12;;;;;;;3.10;2.90;;;;;;;;;;6360203;28;20310;-58
2024/02/09 09:55:20;;;;;;;3.20;2.90;;;;;;;;;;6359259;28;20294;-58
2024/02/09 09:58:24;;;;;;;2.67;2.60;;;;;;;;;;6359516;28;20424;-58
2024/02/09 10:01:30;;;;;;;2.57;2.47;;;;;;;;;;6359416;28;20289;-58
2024/02/09 10:04:35;;;;;;;2.80;2.60;;;;;;;;;;6359380;28;20310;-57
2024/02/09 10:07:41;;;;;;;3.23;2.60;;;;;;;;;;6359818;28;20287;-56
2024/02/09 10:10:48;;;;;;;3.07;2.87;;;;;;;;;;6360677;27;20292;-58
2024/02/09 10:13:52;;;;;;;3.10;2.77;;;;;;;;;;6385952;27;20293;-58
2024/02/09 10:16:58;;;;;;;3.40;2.90;;;;;;;;;;6366831;27;20300;-57
2024/02/09 10:20:03;;;;;;;2.53;2.43;;;;;;;;;;6359282;28;20290;-57
2024/02/09 10:23:07;;;;;;;2.27;2.17;;;;;;;;;;6359957;28;20333;-57
2024/02/09 10:26:14;;;;;;;3.27;2.50;;;;;;;;;;6359161;28;20294;-58
2024/02/09 10:29:18;;;;;;;2.60;2.50;;;;;;;;;;6357837;28;20287;-59
2024/02/09 10:32:26;;;;;;;2.43;2.23;;;;;;;;;;6359319;28;20299;-57
2024/02/09 10:35:31;;;;;;;3.27;2.97;;;;;;;;;;6358781;28;20295;-57
2024/02/09 10:38:35;;;;;;;3.00;2.80;;;;;;;;;;6358964;28;20299;-56
2024/02/09 10:41:42;;;;;;;2.60;2.37;;;;;;;;;;6340429;28;20359;-57
2024/02/09 10:44:46;;;;;;;2.60;2.50;;;;;;;;;;6358581;28;20287;-59
2024/02/09 10:47:55;;;;;;;2.70;2.60;;;;;;;;;;6359086;28;20576;-58
2024/02/09 10:51:00;;;;;;;2.97;2.63;;;;;;;;;;6358697;28;20296;-55
2024/02/09 10:54:10;;;;;;;2.37;2.37;;;;;;;;;;6358073;28;20291;-58
2024/02/09 10:57:15;;;;;;;2.20;2.10;;;;;;;;;;6358875;28;20348;-57
2024/02/09 11:00:19;;;;;;;3.60;2.50;;;;;;;;;;6358777;28;20294;-58
2024/02/09 11:03:24;;;;;;;4.70;2.70;;;;;;;;;;6358550;28;20290;-60
2024/02/09 11:06:28;;;;;;;3.07;2.80;;;;;;;;;;6358785;28;20300;-58
2024/02/09 11:09:33;;;;;;;2.30;2.30;;;;;;;;;;6358485;28;20283;-57
2024/02/09 11:12:38;;;;;;;3.73;2.70;;;;;;;;;;6358809;28;20300;-58
2024/02/09 11:15:42;;;;;;;2.37;2.27;;;;;;;;;;6376389;27;20303;-59
2024/02/09 11:18:49;;;;;;;2.30;2.10;;;;;;;;;;6358703;28;20295;-58
2024/02/09 11:21:57;;;;;;;2.60;2.40;;;;;;;;;;6358571;28;20299;-59
2024/02/09 11:25:01;;;;;;;2.40;2.33;;;;;;;;;;6358131;28;20287;-57
2024/02/09 11:28:10;;;;;;;2.73;2.53;;;;;;;;;;6359048;28;20568;-59
2024/02/09 11:31:16;;;;;;;4.50;2.70;;;;;;;;;;6357651;28;20591;-57
2024/02/09 11:34:21;;;;;;;2.80;2.70;;;;;;;;;;6357778;28;20292;-59
2024/02/09 11:37:26;;;;;;;2.27;2.27;;;;;;;;;;6358176;28;20304;-57
2024/02/09 11:40:30;;;;;;;2.73;2.57;;;;;;;;;;6357325;28;20422;-56
2024/02/09 11:43:35;;;;;;;3.97;2.70;;;;;;;;;;6358085;28;20291;-59
2024/02/09 11:46:40;;;;;;;2.67;2.47;;;;;;;;;;6357797;28;20605;-58
2024/02/09 11:49:46;;;;;;;2.50;2.40;;;;;;;;;;6357497;28;20335;-56
2024/02/09 11:52:54;;;;;;;3.00;2.67;;;;;;;;;;6358109;28;20533;-56
2024/02/09 11:56:14;;;;;;;2.67;2.57;;;;;;;;;;6356721;28;20296;-56
2024/02/09 11:59:20;;;;;;;2.70;2.60;;;;;;;;;;6357129;28;20308;-58
2024/02/09 12:02:24;;;;;;;2.87;2.77;;;;;;;;;;6357587;28;20587;-59
2024/02/09 12:05:29;;;;;;;2.70;2.67;;;;;;;;;;6357002;28;20293;-57
2024/02/09 12:08:33;;;;;;;4.77;2.70;;;;;;;;;;6357918;28;20424;-56
2024/02/09 12:11:38;;;;;;;2.47;2.33;;;;;;;;;;6357415;28;20292;-59
2024/02/09 12:14:44;;;;;;;2.87;2.57;;;;;;;;;;6382744;27;20292;-57
2024/02/09 12:17:49;;;;;;;2.40;2.30;;;;;;;;;;6349590;28;20311;-57
2024/02/09 12:20:54;;;;;;;2.83;2.50;;;;;;;;;;6357295;28;20604;-56
2024/02/09 12:23:58;;;;;;;2.67;2.57;;;;;;;;;;6357160;28;20288;-57
2024/02/09 12:27:13;;;;;;;3.17;2.87;;;;;;;;;;6357705;28;20288;-56
2024/02/09 12:30:20;;;;;;;2.50;2.40;;;;;;;;;;6356722;28;20569;-57
2024/02/09 12:33:24;;;;;;;2.33;2.27;;;;;;;;;;6356844;28;20291;-57
2024/02/09 12:36:31;;;;;;;2.17;2.00;;;;;;;;;;6356834;28;20295;-58
2024/02/09 12:39:36;;;;;;;2.30;2.20;;;;;;;;;;6356454;28;20573;-58
2024/02/09 12:42:41;;;;;;;2.57;2.47;;;;;;;;;;6357548;28;20284;-57
2024/02/09 12:45:47;;;;;;;2.33;2.23;;;;;;;;;;6356275;28;20287;-57
2024/02/09 12:48:51;;;;;;;2.30;2.20;;;;;;;;;;6356990;28;20300;-56
2024/02/09 12:51:55;;;;;;;2.33;2.27;;;;;;;;;;6356855;28;20292;-57
2024/02/09 12:55:00;;;;;;;2.33;2.33;;;;;;;;;;6361469;28;20313;-58
2024/02/09 12:58:05;;;;;;;2.70;2.50;;;;;;;;;;6361566;28;20295;-57
2024/02/09 13:01:10;;;;;;;4.47;2.47;;;;;;;;;;6361203;28;20455;-56
2024/02/09 13:04:14;;;;;;;3.97;2.97;;;;;;;;;;6361515;28;20601;-56
2024/02/09 13:07:18;;;;;;;2.60;2.57;;;;;;;;;;6361363;28;20588;-57
2024/02/09 13:10:22;;;;;;;2.60;2.50;;;;;;;;;;6361222;28;20296;-58
2024/02/09 13:13:26;;;;;;;3.03;2.70;;;;;;;;;;6386163;27;20291;-57
2024/02/09 13:16:31;;;;;;;2.83;2.63;;;;;;;;;;6372336;27;20294;-58
2024/02/09 13:19:35;;;;;;;2.87;2.67;;;;;;;;;;6360515;28;20542;-57
2024/02/09 13:22:39;;;;;;;2.83;2.73;;;;;;;;;;6360969;28;20382;-57
2024/02/09 13:25:43;;;;;;;2.50;2.40;;;;;;;;;;6360550;28;20300;-57
2024/02/09 13:28:48;;;;;;;2.43;2.33;;;;;;;;;;6361195;28;20300;-58
2024/02/09 13:31:54;;;;;;;3.43;2.70;;;;;;;;;;6360554;28;20283;-59
2024/02/09 13:34:58;;;;;;;3.27;3.07;;;;;;;;;;6360552;28;20292;-57
2024/02/09 13:38:03;;;;;;;2.43;2.43;;;;;;;;;;6361148;28;20300;-57
2024/02/09 13:41:07;;;;;;;2.50;2.40;;;;;;;;;;6360297;28;20288;-56
2024/02/09 13:44:15;;;;;;;2.43;2.37;;;;;;;;;;6360274;28;20292;-57
2024/02/09 13:47:21;;;;;;;2.83;2.73;;;;;;;;;;6360494;28;20448;-56
2024/02/09 13:50:25;;;;;;;2.73;2.50;;;;;;;;;;6360002;28;20312;-56
2024/02/09 13:53:30;;;;;;;2.60;2.50;;;;;;;;;;6354092;28;20298;-58
2024/02/09 13:56:38;;;;;;;2.40;2.40;;;;;;;;;;6357496;28;20295;-55
2024/02/09 13:59:42;;;;;;;3.10;2.77;;;;;;;;;;6359467;28;20417;-57
2024/02/09 14:02:51;;;;;;;3.20;3.00;;;;;;;;;;6360125;28;20292;-58
2024/02/09 14:05:56;;;;;;;3.33;3.03;;;;;;;;;;6360023;28;20288;-58
2024/02/09 14:09:00;;;;;;;2.70;2.60;;;;;;;;;;6360094;28;20294;-57
2024/02/09 14:12:05;;;;;;;3.10;2.90;;;;;;;;;;6360190;28;20461;-57
2024/02/09 14:15:10;;;;;;;3.07;2.67;;;;;;;;;;6358659;28;20298;-57
2024/02/09 14:18:17;;;;;;;3.23;3.13;;;;;;;;;;6359763;28;20305;-57
2024/02/09 14:21:22;;;;;;;2.93;2.80;;;;;;;;;;6359122;28;20291;-58
2024/02/09 14:24:26;;;;;;;2.80;2.80;;;;;;;;;;6358554;28;20300;-58
2024/02/09 14:27:30;;;;;;;3.13;2.77;;;;;;;;;;6348143;28;20378;-58
2024/02/09 14:30:35;;;;;;;4.00;3.13;;;;;;;;;;6359354;28;20300;-57
2024/02/09 14:33:41;;;;;;;2.87;2.60;;;;;;;;;;6359401;28;20299;-58
2024/02/09 14:36:45;;;;;;;2.87;2.77;;;;;;;;;;6347465;28;20299;-58
2024/02/09 14:39:49;;;;;;;2.40;2.40;;;;;;;;;;6358333;28;20286;-59
2024/02/09 14:42:54;;;;;;;2.40;2.40;;;;;;;;;;6358705;28;20290;-59
2024/02/09 14:45:59;;;;;;;2.90;2.73;;;;;;;;;;6358103;28;20288;-57
2024/02/09 14:49:04;;;;;;;3.03;2.93;;;;;;;;;;6358134;28;20321;-59
2024/02/09 14:52:08;;;;;;;2.97;2.87;;;;;;;;;;6358784;28;20311;-56
2024/02/09 14:55:13;;;;;;;3.33;2.70;;;;;;;;;;6357849;28;20306;-59
2024/02/09 14:58:18;;;;;;;2.33;2.33;;;;;;;;;;6354425;28;20291;-57
2024/02/09 15:01:23;;;;;;;2.47;2.37;;;;;;;;;;6358320;28;20310;-58
2024/02/09 15:04:30;;;;;;;3.00;2.90;;;;;;;;;;6358349;28;20224;-57
2024/02/09 15:07:34;;;;;;;2.67;2.47;;;;;;;;;;6358326;28;20395;-57
2024/02/09 15:10:39;;;;;;;2.70;2.60;;;;;;;;;;6357842;28;20316;-58
2024/02/09 15:13:44;;;;;;;2.53;2.50;;;;;;;;;;6383372;27;20286;-57
2024/02/09 15:16:48;;;;;;;2.60;2.50;;;;;;;;;;6365716;27;20592;-57
2024/02/09 15:19:53;;;;;;;2.83;2.63;;;;;;;;;;6357466;28;20290;-58
2024/02/09 15:22:57;;;;;;;3.43;3.00;;;;;;;;;;6358306;28;20353;-58
2024/02/09 15:26:02;;;;;;;2.60;2.50;;;;;;;;;;6357391;28;20290;-58
2024/02/09 15:29:06;;;;;;;3.20;3.00;;;;;;;;;;6357399;28;20295;-59
2024/02/09 15:32:13;;;;;;;3.20;3.00;;;;;;;;;;6357718;28;20286;-58
2024/02/09 15:35:19;;;;;;;2.90;2.80;;;;;;;;;;6357071;28;20292;-57
2024/02/09 15:38:24;;;;;;;3.27;2.90;;;;;;;;;;6357690;28;20289;-57
2024/02/09 15:41:28;;;;;;;3.03;2.93;;;;;;;;;;6357540;28;20578;-58
2024/02/09 15:44:34;;;;;;;2.90;2.80;;;;;;;;;;6357120;28;20281;-54
2024/02/09 15:47:38;;;;;;;2.90;2.80;;;;;;;;;;6357354;28;20290;-57
2024/02/09 15:50:44;;;;;;;5.97;3.20;;;;;;;;;;6356986;28;20298;-57
2024/02/09 15:53:48;;;;;;;2.87;2.77;;;;;;;;;;6348705;28;20438;-58
2024/02/09 15:56:52;;;;;;;3.30;3.00;;;;;;;;;;6356607;28;20293;-57
2024/02/09 15:59:56;;;;;;;3.20;3.00;;;;;;;;;;6356580;28;20294;-57
2024/02/09 16:03:00;;;;;;;3.27;3.07;;;;;;;;;;6357567;28;20281;-58
2024/02/09 16:06:08;;;;;;;2.90;2.80;;;;;;;;;;6356988;28;20293;-58
2024/02/09 16:09:12;;;;;;;3.40;3.20;;;;;;;;;;6355963;28;20293;-56
2024/02/09 16:12:16;;;;;;;3.10;3.00;;;;;;;;;;6357283;28;20290;-57
2024/02/09 16:15:21;;;;;;;2.70;2.60;;;;;;;;;;6356705;28;20293;-59
2024/02/09 16:18:26;;;;;;;3.33;3.03;;;;;;;;;;6355810;28;20294;-58
2024/02/09 16:21:31;;;;;;;3.10;3.00;;;;;;;;;;6357038;28;20297;-59
2024/02/09 16:24:35;;;;;;;3.80;3.60;;;;;;;;;;6356337;28;20290;-58
2024/02/09 16:27:39;;;;;;;3.00;2.90;;;;;;;;;;6359017;28;20289;-59
2024/02/09 16:30:43;;;;;;;3.97;3.63;;;;;;;;;;6343520;28;20289;-58
2024/02/09 16:33:50;;;;;;;4.33;4.03;;;;;;;;;;6362028;28;20288;-56
2024/02/09 16:36:56;;;;;;;3.53;3.23;;;;;;;;;;6361709;28;20365;-58
2024/02/09 16:40:00;;;;;;;3.57;3.30;;;;;;;;;;6344028;28;20292;-58
2024/02/09 16:43:04;;;;;;;3.50;3.30;;;;;;;;;;6361969;28;20292;-56
2024/02/09 16:46:08;;;;;;;3.37;3.17;;;;;;;;;;6361054;28;20336;-57
2024/02/09 16:49:12;;;;;;;3.80;3.50;;;;;;;;;;6361500;28;20304;-58
2024/02/09 16:52:18;;;;;;;3.63;3.43;;;;;;;;;;6361295;28;20477;-58
2024/02/09 16:55:21;;;;;;;4.07;3.87;;;;;;;;;;6360889;28;20310;-58
2024/02/09 16:58:26;;;;;;;3.50;3.30;;;;;;;;;;6361319;28;20297;-58
2024/02/09 17:01:30;;;;;;;3.73;3.53;;;;;;;;;;6361116;28;20617;-60
2024/02/09 17:04:34;;;;;;;4.93;4.50;;;;;;;;;;6359516;28;20760;-59
2024/02/09 17:07:39;;;;;;;4.40;4.10;;;;;;;;;;6361915;28;20850;-58
2024/02/09 17:10:43;;;;;;;3.33;3.23;;;;;;;;;;6361683;27;20471;-58
2024/02/09 17:13:48;;;;;;;3.83;3.63;;;;;;;;;;6386684;27;20292;-56
2024/02/09 17:16:58;;;;;;;4.20;3.77;;;;;;;;;;6368445;27;20300;-56
2024/02/09 17:20:03;;;;;;;3.90;3.60;;;;;;;;;;6360213;28;20325;-57
2024/02/09 17:23:09;;;;;;;3.70;3.60;;;;;;;;;;6360807;28;20288;-55
2024/02/09 17:26:13;;;;;;;4.53;4.17;;;;;;;;;;6360321;28;20296;-58
2024/02/09 17:29:17;;;;;;;4.53;4.13;;;;;;;;;;6360117;28;20298;-58
2024/02/09 17:32:21;;;;;;;8.83;6.53;;;;;;;;;;6358929;28;20546;-57
2024/02/09 17:35:26;;;;;;;7.07;4.43;;;;;;;;;;6359807;28;20313;-58
2024/02/09 17:38:33;;;;;;;5.40;4.93;;;;;;;;;;6358470;28;20741;-56
2024/02/09 17:41:37;;;;;;;5.93;5.38;;;;;;;;;;6359291;28;20588;-58
2024/02/09 17:44:41;;;;;;;6.25;5.30;;;;;;;;;;6358672;28;20460;-59
2024/02/09 17:47:52;;;;;;;4.80;4.50;;;;;;;;;;6360197;28;20307;-58
2024/02/09 17:50:57;;;;;;;4.50;4.10;;;;;;;;;;6359827;28;20286;-59
2024/02/09 17:54:02;;;;;;;5.03;3.67;;;;;;;;;;6351065;28;20286;-61
2024/02/09 17:57:07;;;;;;;4.63;4.30;;;;;;;;;;6360046;28;20290;-57
2024/02/09 18:00:12;;;;;;;3.57;3.37;;;;;;;;;;6359268;28;20297;-57
2024/02/09 18:03:16;;;;;;;4.80;3.80;;;;;;;;;;6359782;28;20300;-57
2024/02/09 18:06:20;;;;;;;4.10;3.90;;;;;;;;;;6359000;28;20284;-58
2024/02/09 18:09:25;;;;;;;5.47;3.83;;;;;;;;;;6358570;28;20280;-59
2024/02/09 18:12:30;;;;;;;4.63;4.33;;;;;;;;;;6375784;27;20471;-57
2024/02/09 18:15:34;;;;;;;4.10;3.80;;;;;;;;;;6378860;27;20374;-58
2024/02/09 18:18:38;;;;;;;4.60;4.20;;;;;;;;;;6359290;28;20290;-58
2024/02/09 18:21:42;;;;;;;4.23;3.93;;;;;;;;;;6358713;28;20307;-58
2024/02/09 18:24:47;;;;;;;4.37;4.00;;;;;;;;;;6359006;28;20292;-57
2024/02/09 18:27:53;;;;;;;4.23;3.90;;;;;;;;;;6359357;28;20288;-59
2024/02/09 18:31:00;;;;;;;7.23;3.73;;;;;;;;;;6359074;28;20285;-58
2024/02/09 18:34:03;;;;;;;3.77;3.57;;;;;;;;;;6359186;28;20291;-58
2024/02/09 18:37:08;;;;;;;4.07;3.80;;;;;;;;;;6359289;28;20297;-56
2024/02/09 18:40:14;;;;;;;4.07;3.77;;;;;;;;;;6342621;28;20309;-57
2024/02/09 18:43:18;;;;;;;3.80;3.57;;;;;;;;;;6333983;28;20320;-57
2024/02/09 18:46:24;;;;;;;5.43;3.87;;;;;;;;;;6333233;28;20376;-58
2024/02/09 18:49:28;;;;;;;4.13;3.70;;;;;;;;;;6304732;28;20314;-57
2024/02/09 18:52:33;;;;;;;4.50;3.73;;;;;;;;;;6333799;28;20579;-58
2024/02/09 18:55:41;;;;;;;4.50;3.73;;;;;;;;;;6332800;28;20298;-58
2024/02/09 18:58:45;;;;;;;4.77;3.70;;;;;;;;;;6333571;28;20307;-57
2024/02/09 19:01:50;;;;;;;3.30;3.10;;;;;;;;;;6333074;28;20306;-56
2024/02/09 19:04:54;;;;;;;3.50;3.30;;;;;;;;;;6333116;28;20301;-57
2024/02/09 19:07:59;;;;;;;3.30;3.20;;;;;;;;;;6332446;28;20631;-59
2024/02/09 19:11:06;;;;;;;3.60;3.27;;;;;;;;;;6340928;27;20317;-56
2024/02/09 19:14:10;;;;;;;3.20;3.10;;;;;;;;;;6383406;27;20299;-59
2024/02/09 19:17:13;;;;;;;4.13;3.83;;;;;;;;;;6362050;27;20632;-57
2024/02/09 19:20:19;;;;;;;4.00;3.67;;;;;;;;;;6357395;28;20292;-57
2024/02/09 19:23:24;;;;;;;3.73;3.60;;;;;;;;;;6357457;28;20290;-59
2024/02/09 19:26:33;;;;;;;3.37;3.27;;;;;;;;;;6357412;28;20300;-56
2024/02/09 19:29:37;;;;;;;3.30;3.17;;;;;;;;;;6357237;28;20288;-57
2024/02/09 19:32:41;;;;;;;3.23;3.03;;;;;;;;;;6357715;28;20308;-54
2024/02/09 19:35:48;;;;;;;4.73;3.47;;;;;;;;;;6357054;28;20301;-56
2024/02/09 19:38:52;;;;;;;4.37;3.43;;;;;;;;;;6357752;28;20289;-58
2024/02/09 19:41:58;;;;;;;3.50;3.20;;;;;;;;;;6356974;28;20391;-56
2024/02/09 19:45:02;;;;;;;3.07;2.83;;;;;;;;;;6357001;28;20422;-57
2024/02/09 19:48:07;;;;;;;3.13;2.93;;;;;;;;;;6357221;28;20299;-57
2024/02/09 19:51:13;;;;;;;3.10;3.00;;;;;;;;;;6356900;28;20297;-56
2024/02/09 19:54:20;;;;;;;3.57;3.27;;;;;;;;;;6348187;28;20301;-58
2024/02/09 19:57:25;;;;;;;3.47;2.80;;;;;;;;;;6356934;28;20294;-57
2024/02/09 20:00:31;;;;;;;2.83;2.67;;;;;;;;;;6356790;28;20399;-58
2024/02/09 20:03:36;;;;;;;2.87;2.80;;;;;;;;;;6366067;28;20288;-57
2024/02/09 20:06:40;;;;;;;2.90;2.70;;;;;;;;;;6365618;28;20421;-56
2024/02/09 20:09:44;;;;;;;2.90;2.80;;;;;;;;;;6365396;28;20285;-57
2024/02/09 20:12:50;;;;;;;2.73;2.63;;;;;;;;;;6365756;28;20412;-56
2024/02/09 20:15:58;;;;;;;3.00;2.80;;;;;;;;;;6362714;28;20311;-58